Time;durP1;ratioP1;P1;durP2;ratioP2;P2;SDS_P1;SDS_P2;PMS_P1;PMS_P2;Temp;Humidity;BMP_temperature;BMP_pressure;BME280_temperature;BME280_humidity;BME280_pressure;Samples;Min_cycle;Max_cycle;Signal;HPM_P1;HPM_P2
2021/04/27 00:02:29;;;;;;;2.67;0.30;;;5.90;99.90;;;;;;13055411;22;20022;-84
2021/04/27 00:07:30;;;;;;;2.13;0.82;;;5.80;99.90;;;;;;13082085;22;20014;-84
2021/04/27 00:12:31;;;;;;;7.70;0.80;;;5.70;99.90;;;;;;13058009;22;20018;-84
2021/04/27 00:17:31;;;;;;;1.17;0.68;;;5.70;99.90;;;;;;13056334;22;20034;-84
2021/04/27 00:22:32;;;;;;;0.77;0.30;;;5.60;99.90;;;;;;13056870;22;20482;-84
2021/04/27 00:27:33;;;;;;;0.80;0.40;;;5.60;99.90;;;;;;13106496;22;20015;-84
2021/04/27 00:32:34;;;;;;;1.38;0.45;;;5.50;99.90;;;;;;13056904;22;20394;-84
2021/04/27 00:37:34;;;;;;;2.17;1.00;;;5.50;99.90;;;;;;13054743;22;20084;-83
2021/04/27 00:42:39;;;;;;;2.83;0.60;;;5.40;99.90;;;;;;13081959;22;20083;-83
2021/04/27 00:47:39;;;;;;;1.85;0.80;;;5.40;99.90;;;;;;13058010;22;20018;-84
2021/04/27 00:52:43;;;;;;;1.67;0.60;;;5.30;99.90;;;;;;13083458;22;20014;-84
2021/04/27 00:57:43;;;;;;;2.60;0.85;;;5.20;99.90;;;;;;13083363;22;20045;-84
2021/04/27 01:02:45;;;;;;;2.83;0.85;;;5.30;99.90;;;;;;13109040;22;20386;-84
2021/04/27 01:08:20;;;;;;;1.73;0.80;;;5.30;99.90;;;;;;13081080;22;20010;-84
2021/04/27 01:13:38;;;;;;;1.40;0.60;;;5.20;99.90;;;;;;13084301;22;20034;-84
2021/04/27 01:18:43;;;;;;;6.13;1.13;;;5.20;99.90;;;;;;13082541;22;20080;-84
2021/04/27 01:24:17;;;;;;;1.55;0.60;;;5.10;99.90;;;;;;13083386;22;20006;-84
2021/04/27 01:29:27;;;;;;;2.50;0.60;;;5.10;99.90;;;;;;13108612;22;20437;-83
2021/04/27 01:34:32;;;;;;;2.60;0.77;;;5.10;99.90;;;;;;13082785;22;20406;-84
2021/04/27 01:39:33;;;;;;;2.67;0.73;;;5.00;99.90;;;;;;13082802;22;20019;-84
2021/04/27 01:44:36;;;;;;;1.55;1.00;;;4.90;99.90;;;;;;13056075;22;20036;-84
2021/04/27 01:49:42;;;;;;;4.65;1.02;;;4.90;99.90;;;;;;13081854;22;20011;-84
2021/04/27 01:54:42;;;;;;;1.50;0.60;;;4.90;99.90;;;;;;13083242;22;20045;-84
2021/04/27 01:59:43;;;;;;;2.08;0.65;;;4.80;99.90;;;;;;13108739;22;20007;-83
2021/04/27 02:04:44;;;;;;;1.08;0.38;;;4.80;99.90;;;;;;13057096;22;20049;-83
2021/04/27 02:09:45;;;;;;;2.67;0.95;;;4.70;99.90;;;;;;13058460;22;20073;-83
2021/04/27 02:14:45;;;;;;;3.45;0.63;;;4.70;99.90;;;;;;13107379;22;20080;-84
2021/04/27 02:19:47;;;;;;;1.67;0.95;;;4.80;99.90;;;;;;13057069;22;20006;-84
2021/04/27 02:24:48;;;;;;;1.77;0.50;;;4.70;99.90;;;;;;13056910;22;20103;-83
2021/04/27 02:29:50;;;;;;;1.55;0.50;;;4.70;99.90;;;;;;13057117;22;20071;-84
2021/04/27 02:34:51;;;;;;;1.35;0.50;;;4.70;99.90;;;;;;13083136;22;20072;-84
2021/04/27 02:39:54;;;;;;;1.58;0.50;;;4.70;99.90;;;;;;13055436;22;20073;-83
2021/04/27 02:44:55;;;;;;;1.63;0.47;;;4.60;99.90;;;;;;13109263;22;20011;-84
2021/04/27 02:49:56;;;;;;;1.75;0.80;;;4.60;99.90;;;;;;13057024;22;20091;-84
2021/04/27 02:54:56;;;;;;;2.28;0.70;;;4.70;99.90;;;;;;13083831;22;20018;-83
2021/04/27 02:59:57;;;;;;;2.15;0.80;;;4.60;99.90;;;;;;13082045;22;20014;-84
2021/04/27 03:04:58;;;;;;;1.95;0.55;;;4.50;99.90;;;;;;13082952;22;20015;-84
2021/04/27 03:09:59;;;;;;;4.85;0.77;;;4.50;99.90;;;;;;13082938;22;20007;-84
2021/04/27 03:15:00;;;;;;;2.05;0.73;;;4.40;99.90;;;;;;13056736;22;20026;-84
2021/04/27 03:20:02;;;;;;;4.43;0.80;;;4.50;99.90;;;;;;13083934;22;20055;-84
2021/04/27 03:25:04;;;;;;;4.20;0.40;;;4.40;99.90;;;;;;13083155;22;20014;-83
2021/04/27 03:30:07;;;;;;;1.05;0.35;;;4.40;99.90;;;;;;13108553;22;20021;-84
2021/04/27 03:35:11;;;;;;;0.85;0.40;;;4.40;99.90;;;;;;13083414;22;20014;-84
2021/04/27 03:40:12;;;;;;;2.25;1.13;;;4.40;99.90;;;;;;13057948;22;20045;-83
2021/04/27 03:45:16;;;;;;;1.45;0.70;;;4.30;99.90;;;;;;13057361;22;20006;-83
2021/04/27 03:50:19;;;;;;;1.17;0.50;;;4.30;99.90;;;;;;13084409;22;20010;-84
2021/04/27 03:55:20;;;;;;;3.22;0.90;;;4.30;99.90;;;;;;13085144;22;20014;-84
2021/04/27 04:00:21;;;;;;;1.35;0.63;;;4.20;99.90;;;;;;13058004;22;20114;-84
2021/04/27 04:05:22;;;;;;;2.58;0.60;;;4.20;99.90;;;;;;13085038;22;20450;-84
2021/04/27 04:10:23;;;;;;;1.00;0.50;;;4.20;99.90;;;;;;13063138;22;20014;-84
2021/04/27 04:15:24;;;;;;;5.00;0.70;;;4.30;99.90;;;;;;13088787;22;20019;-84
2021/04/27 04:20:25;;;;;;;1.08;0.50;;;4.30;99.90;;;;;;13064843;22;20102;-84
2021/04/27 04:25:26;;;;;;;1.13;0.60;;;4.30;99.90;;;;;;13126917;22;20018;-84
2021/04/27 04:30:27;;;;;;;2.20;0.77;;;4.30;99.90;;;;;;13110863;22;20018;-84
2021/04/27 04:35:28;;;;;;;1.58;0.85;;;4.30;99.90;;;;;;13110437;22;20143;-83
2021/04/27 04:40:29;;;;;;;2.28;0.75;;;4.30;99.90;;;;;;13080837;22;20102;-83
2021/04/27 04:45:30;;;;;;;4.28;0.77;;;4.40;99.90;;;;;;13081093;22;20091;-83
2021/04/27 04:50:31;;;;;;;5.68;1.48;;;4.40;99.90;;;;;;13054755;22;20649;-83
2021/04/27 04:55:35;;;;;;;2.45;0.73;;;4.40;99.90;;;;;;13080643;22;20011;-83
2021/04/27 05:00:35;;;;;;;9.65;1.00;;;4.40;99.90;;;;;;13054753;22;20316;-83
2021/04/27 05:05:36;;;;;;;2.15;1.00;;;4.40;99.90;;;;;;13055197;22;20015;-83
2021/04/27 05:10:38;;;;;;;4.95;1.00;;;4.50;99.90;;;;;;13056541;22;20410;-83
2021/04/27 05:15:38;;;;;;;4.57;0.60;;;4.50;99.90;;;;;;13081330;22;20021;-83
2021/04/27 05:20:39;;;;;;;3.45;1.15;;;4.70;99.90;;;;;;13057260;22;20046;-83
2021/04/27 05:25:40;;;;;;;4.90;1.45;;;4.80;99.90;;;;;;13082540;22;20011;-83
2021/04/27 05:30:40;;;;;;;4.22;1.50;;;4.90;99.90;;;;;;13056387;22;20038;-84
2021/04/27 05:35:41;;;;;;;3.53;1.50;;;5.10;99.90;;;;;;13080955;22;20017;-83
2021/04/27 05:40:42;;;;;;;3.08;1.10;;;5.30;99.90;;;;;;13109805;22;20046;-85
2021/04/27 05:45:43;;;;;;;1.83;0.88;;;5.60;99.90;;;;;;13081169;22;20006;-85
2021/04/27 05:50:44;;;;;;;2.30;0.80;;;5.60;99.90;;;;;;13082798;22;20007;-85
2021/04/27 05:55:45;;;;;;;4.80;0.90;;;5.80;99.90;;;;;;13057687;22;20010;-84
2021/04/27 06:00:45;;;;;;;2.28;0.90;;;5.80;99.90;;;;;;13082455;22;20041;-85
2021/04/27 06:05:46;;;;;;;3.75;0.80;;;6.10;99.90;;;;;;13080329;22;20007;-83
2021/04/27 06:10:47;;;;;;;2.33;0.80;;;6.10;99.90;;;;;;13056459;22;20019;-83
2021/04/27 06:15:48;;;;;;;6.00;0.95;;;6.40;99.90;;;;;;13080442;22;20061;-83
2021/04/27 06:20:48;;;;;;;2.03;0.90;;;6.40;99.90;;;;;;13082999;22;20520;-83
2021/04/27 06:25:49;;;;;;;4.32;0.95;;;6.20;99.90;;;;;;13055818;22;20007;-83
2021/04/27 06:30:50;;;;;;;3.13;1.33;;;6.40;99.90;;;;;;13081844;22;20014;-84
2021/04/27 06:35:50;;;;;;;3.88;1.05;;;6.60;99.90;;;;;;13080965;22;20068;-84
2021/04/27 06:40:52;;;;;;;1.50;0.70;;;6.60;99.90;;;;;;13082716;22;20080;-83
2021/04/27 06:45:53;;;;;;;4.78;1.30;;;6.70;99.90;;;;;;13079198;22;20013;-83
2021/04/27 06:50:53;;;;;;;1.92;0.88;;;6.80;99.90;;;;;;13047665;22;20483;-83
2021/04/27 06:55:54;;;;;;;2.22;0.82;;;6.90;99.90;;;;;;13059688;22;20046;-82
2021/04/27 07:00:55;;;;;;;3.55;1.38;;;6.90;99.90;;;;;;13097843;22;20011;-82
2021/04/27 07:05:55;;;;;;;2.65;1.00;;;7.00;99.90;;;;;;13093601;22;20015;-83
2021/04/27 07:10:57;;;;;;;5.18;1.13;;;7.20;99.90;;;;;;13050995;22;20041;-82
2021/04/27 07:15:58;;;;;;;2.55;1.65;;;7.30;99.90;;;;;;13075524;22;20014;-82
2021/04/27 07:20:59;;;;;;;2.95;1.40;;;7.30;99.90;;;;;;13079814;22;20089;-84
2021/04/27 07:26:00;;;;;;;6.28;1.20;;;7.40;99.90;;;;;;13081684;22;20045;-82
2021/04/27 07:36:11;;;;;;;3.05;0.98;;;7.80;99.90;;;;;;13019340;22;20058;-45
2021/04/27 07:41:12;;;;;;;4.28;1.40;;;7.80;99.90;;;;;;13089748;22;20037;-45
2021/04/27 07:46:14;;;;;;;5.20;1.80;;;8.10;99.90;;;;;;13075035;22;20224;-46
2021/04/27 07:51:17;;;;;;;2.97;1.40;;;8.30;99.90;;;;;;13063891;22;20010;-45
2021/04/27 07:56:19;;;;;;;3.53;1.23;;;8.60;99.90;;;;;;13089074;22;20014;-45
2021/04/27 08:01:20;;;;;;;4.20;1.48;;;8.60;99.90;;;;;;13078632;22;20543;-45
2021/04/27 08:06:20;;;;;;;2.17;0.93;;;8.70;99.90;;;;;;13074267;22;20042;-45
2021/04/27 08:11:21;;;;;;;5.10;1.50;;;9.00;99.90;;;;;;13089221;22;20025;-45
2021/04/27 08:16:22;;;;;;;4.63;1.60;;;9.30;99.90;;;;;;13095779;22;20015;-45
2021/04/27 08:21:23;;;;;;;5.22;1.27;;;9.40;99.90;;;;;;13093332;22;20060;-46
2021/04/27 08:26:25;;;;;;;3.00;1.35;;;9.60;99.90;;;;;;13093495;22;20065;-45
2021/04/27 08:31:26;;;;;;;4.30;1.80;;;9.70;99.90;;;;;;13085441;22;20015;-46
2021/04/27 08:36:27;;;;;;;3.03;1.58;;;9.90;99.90;;;;;;13094728;22;20037;-46
2021/04/27 08:41:28;;;;;;;2.63;1.48;;;10.10;99.90;;;;;;13094235;22;20113;-45
2021/04/27 08:46:29;;;;;;;2.72;1.33;;;10.50;99.90;;;;;;13091929;22;20018;-45
2021/04/27 08:51:39;;;;;;;3.08;1.23;;;10.80;99.90;;;;;;13051819;22;20121;-46
2021/04/27 08:56:39;;;;;;;2.95;1.10;;;11.10;99.90;;;;;;13033864;22;20014;-46
2021/04/27 09:01:41;;;;;;;3.45;1.33;;;11.40;98.10;;;;;;13086409;22;20398;-46
2021/04/27 09:06:41;;;;;;;3.80;1.65;;;11.80;95.70;;;;;;13084780;22;20084;-46
2021/04/27 09:11:47;;;;;;;2.30;1.13;;;12.10;96.80;;;;;;13084000;22;20734;-46
2021/04/27 09:16:54;;;;;;;4.95;1.83;;;12.20;96.10;;;;;;13085768;22;20015;-48
2021/04/27 09:22:09;;;;;;;5.07;1.70;;;12.70;94.20;;;;;;13088551;22;20011;-48
2021/04/27 09:27:11;;;;;;;3.40;1.45;;;13.00;93.10;;;;;;13070289;22;20011;-48
2021/04/27 09:32:28;;;;;;;3.50;1.52;;;13.40;91.70;;;;;;13079626;22;20378;-48
2021/04/27 09:37:28;;;;;;;3.35;1.52;;;13.70;89.00;;;;;;13090307;22;20130;-48
2021/04/27 09:42:29;;;;;;;2.00;0.93;;;14.10;78.50;;;;;;13087948;22;20107;-48
2021/04/27 09:47:32;;;;;;;2.78;1.52;;;14.30;76.60;;;;;;13085424;22;20019;-48
2021/04/27 09:52:41;;;;;;;2.47;1.02;;;14.40;77.80;;;;;;13090130;22;20097;-48
2021/04/27 09:57:55;;;;;;;6.00;1.90;;;14.80;72.30;;;;;;13089311;22;20014;-48
2021/04/27 10:03:05;;;;;;;4.13;1.50;;;15.00;69.20;;;;;;13091486;22;20042;-46
2021/04/27 10:08:06;;;;;;;3.10;1.48;;;15.30;65.60;;;;;;13086587;22;20022;-46
2021/04/27 10:13:09;;;;;;;3.03;1.15;;;15.30;64.50;;;;;;13091726;22;20013;-46
2021/04/27 10:18:11;;;;;;;3.65;1.40;;;15.30;65.30;;;;;;13092543;22;20030;-46
2021/04/27 10:23:12;;;;;;;3.78;1.33;;;16.00;59.70;;;;;;13087916;22;20270;-46
2021/04/27 10:28:12;;;;;;;2.63;1.25;;;16.30;54.80;;;;;;13080078;22;20338;-46
2021/04/27 10:33:13;;;;;;;4.18;1.15;;;16.80;53.40;;;;;;13089124;22;20431;-46
2021/04/27 10:38:18;;;;;;;2.80;1.60;;;16.80;52.00;;;;;;13086338;22;20452;-46
2021/04/27 10:43:28;;;;;;;2.72;1.65;;;16.80;51.10;;;;;;13083821;22;20014;-46
2021/04/27 10:48:41;;;;;;;5.18;1.00;;;17.00;54.00;;;;;;13082712;22;20048;-46
2021/04/27 10:53:42;;;;;;;1.92;1.00;;;17.60;51.40;;;;;;13089744;22;20391;-46
2021/04/27 10:59:04;;;;;;;2.47;0.93;;;18.10;48.30;;;;;;13068502;22;20051;-46
2021/04/27 11:04:05;;;;;;;2.83;1.55;;;18.00;47.20;;;;;;13084886;22;20036;-46
2021/04/27 11:09:15;;;;;;;2.65;1.13;;;18.10;45.60;;;;;;13088402;22;20423;-46
2021/04/27 11:14:24;;;;;;;2.45;1.20;;;18.50;46.10;;;;;;13092190;22;20026;-48
2021/04/27 11:19:25;;;;;;;3.45;1.83;;;18.80;43.90;;;;;;13093940;22;20019;-46
2021/04/27 11:24:36;;;;;;;2.10;0.90;;;18.00;45.10;;;;;;13066680;22;20018;-46
2021/04/27 11:30:11;;;;;;;3.40;1.33;;;18.30;45.20;;;;;;13094801;22;20030;-46
2021/04/27 11:35:19;;;;;;;3.35;1.38;;;17.70;44.80;;;;;;13088101;22;20433;-46
2021/04/27 11:40:30;;;;;;;2.45;1.08;;;18.60;43.80;;;;;;13094484;22;20457;-46
2021/04/27 11:45:36;;;;;;;2.03;1.00;;;18.00;43.70;;;;;;13087780;22;20030;-46
2021/04/27 11:50:37;;;;;;;8.23;2.50;;;18.70;45.30;;;;;;13096120;22;20068;-46
2021/04/27 11:55:50;;;;;;;2.97;1.70;;;18.60;45.80;;;;;;13095415;22;20187;-46
2021/04/27 12:00:54;;;;;;;4.60;1.42;;;19.40;42.30;;;;;;13094387;22;20002;-46
2021/04/27 12:06:16;;;;;;;3.22;1.27;;;19.40;42.10;;;;;;13086035;22;20103;-49
2021/04/27 12:11:32;;;;;;;4.30;1.38;;;19.60;43.70;;;;;;13093993;22;20018;-46
2021/04/27 12:16:41;;;;;;;2.85;1.10;;;19.20;41.20;;;;;;13092431;22;20093;-46
2021/04/27 12:21:45;;;;;;;2.63;1.08;;;19.00;44.60;;;;;;13093826;22;20018;-45
2021/04/27 12:26:51;;;;;;;4.72;1.25;;;20.10;42.50;;;;;;13092290;22;20033;-47
2021/04/27 12:31:53;;;;;;;2.50;1.10;;;20.40;41.50;;;;;;13093270;22;20042;-46
2021/04/27 12:36:54;;;;;;;2.50;1.05;;;21.00;39.10;;;;;;13092839;22;20098;-45
2021/04/27 12:42:02;;;;;;;2.67;1.30;;;21.50;41.60;;;;;;13092790;22;20133;-45
2021/04/27 12:47:05;;;;;;;5.67;2.37;;;20.90;38.70;;;;;;13094679;22;20026;-45
2021/04/27 12:52:12;;;;;;;2.97;1.15;;;19.50;38.90;;;;;;13093213;22;20011;-45
2021/04/27 12:57:16;;;;;;;2.60;1.30;;;19.30;41.30;;;;;;13091713;22;20588;-45
2021/04/27 13:02:17;;;;;;;2.88;1.05;;;19.80;40.00;;;;;;13092532;22;20011;-46
2021/04/27 13:07:29;;;;;;;3.15;1.30;;;20.80;38.90;;;;;;13091795;22;20548;-46
2021/04/27 13:12:31;;;;;;;2.90;1.23;;;20.30;38.60;;;;;;13090497;22;20011;-46
2021/04/27 13:17:43;;;;;;;3.85;1.50;;;20.00;38.50;;;;;;13093396;22;20011;-46
2021/04/27 13:22:51;;;;;;;6.45;1.20;;;21.40;40.20;;;;;;13095470;22;20010;-46
2021/04/27 13:27:56;;;;;;;4.57;1.70;;;20.40;40.20;;;;;;13095139;22;20034;-46
2021/04/27 13:33:12;;;;;;;2.72;1.48;;;20.80;38.10;;;;;;13096515;22;20010;-46
2021/04/27 13:38:15;;;;;;;3.75;1.92;;;21.30;36.90;;;;;;13096726;22;20026;-46
2021/04/27 13:43:18;;;;;;;2.42;1.20;;;22.10;37.50;;;;;;13094298;22;20034;-47
2021/04/27 13:48:26;;;;;;;2.30;1.08;;;21.80;37.30;;;;;;13080958;22;20011;-46
2021/04/27 13:53:31;;;;;;;2.55;1.02;;;21.30;37.90;;;;;;13093567;22;20061;-46
2021/04/27 13:58:32;;;;;;;4.20;1.42;;;21.20;37.80;;;;;;13098571;22;20071;-46
2021/04/27 14:03:36;;;;;;;2.70;1.35;;;21.40;37.80;;;;;;13077230;22;20017;-46
2021/04/27 14:08:39;;;;;;;3.35;1.45;;;21.30;38.00;;;;;;13042478;22;20429;-46
2021/04/27 14:14:44;;;;;;;7.68;1.92;;;20.60;38.10;;;;;;13080676;22;20020;-46
2021/04/27 14:19:45;;;;;;;2.75;1.33;;;19.80;39.90;;;;;;13094098;22;20045;-46
2021/04/27 14:24:46;;;;;;;5.65;2.50;;;19.50;40.50;;;;;;13056611;22;20015;-46
2021/04/27 14:29:47;;;;;;;3.55;1.70;;;18.60;41.80;;;;;;13080537;22;20101;-46
2021/04/27 14:34:48;;;;;;;3.25;1.38;;;18.40;42.40;;;;;;13091006;22;20120;-46
2021/04/27 14:39:50;;;;;;;2.38;0.90;;;18.20;42.10;;;;;;13088053;22;20111;-46
2021/04/27 14:44:51;;;;;;;2.75;1.10;;;18.00;41.80;;;;;;13084986;22;20003;-46
2021/04/27 14:49:55;;;;;;;2.70;1.25;;;18.10;42.80;;;;;;13099124;22;20091;-46
2021/04/27 14:54:59;;;;;;;5.50;1.40;;;17.90;42.50;;;;;;13085679;22;20077;-46
2021/04/27 15:00:04;;;;;;;5.70;0.75;;;17.70;43.70;;;;;;13083899;22;20083;-50
2021/04/27 15:05:09;;;;;;;2.58;1.15;;;17.70;42.80;;;;;;13083322;22;20027;-46
2021/04/27 15:10:10;;;;;;;2.00;1.10;;;17.50;44.40;;;;;;13101447;22;20423;-46
2021/04/27 15:15:12;;;;;;;2.35;1.02;;;17.30;44.00;;;;;;13075469;22;20011;-46
2021/04/27 15:20:14;;;;;;;3.03;0.95;;;17.40;43.30;;;;;;13105126;22;20011;-46
2021/04/27 15:25:22;;;;;;;3.67;1.70;;;17.50;42.70;;;;;;13100205;22;20002;-46
2021/04/27 15:30:24;;;;;;;2.65;1.50;;;17.40;42.80;;;;;;13083527;22;20622;-46
2021/04/27 15:36:01;;;;;;;2.72;1.25;;;17.30;42.50;;;;;;13081793;22;20069;-46
2021/04/27 15:41:12;;;;;;;2.70;1.25;;;17.30;42.60;;;;;;13081408;22;20093;-46
2021/04/27 15:46:40;;;;;;;3.42;1.52;;;17.10;43.10;;;;;;13098254;22;20026;-46
2021/04/27 15:51:45;;;;;;;1.73;0.65;;;17.10;42.10;;;;;;13003756;22;20014;-46
2021/04/27 15:57:10;;;;;;;2.92;1.20;;;16.90;43.60;;;;;;13098656;22;20023;-46
2021/04/27 16:07:46;;;;;;;3.05;1.10;;;16.70;43.30;;;;;;13114573;22;20094;-46
2021/04/27 16:12:49;;;;;;;5.97;1.92;;;16.60;43.30;;;;;;13089600;22;20009;-46
2021/04/27 16:17:50;;;;;;;3.55;1.35;;;16.60;43.90;;;;;;13105386;22;20590;-46
2021/04/27 16:22:54;;;;;;;2.20;1.00;;;16.60;42.20;;;;;;13086722;22;20017;-46
2021/04/27 16:28:07;;;;;;;2.13;0.75;;;16.50;43.40;;;;;;13063193;22;20006;-46
2021/04/27 16:33:09;;;;;;;4.70;1.52;;;16.30;42.10;;;;;;13117627;22;20003;-46
2021/04/27 16:38:10;;;;;;;4.80;1.52;;;16.10;44.20;;;;;;13100346;22;20026;-46
2021/04/27 16:43:12;;;;;;;3.65;1.63;;;16.00;44.60;;;;;;13103488;22;20011;-46
2021/04/27 16:48:13;;;;;;;2.45;1.42;;;16.00;42.50;;;;;;13104044;22;20023;-45
2021/04/27 16:53:14;;;;;;;4.00;1.42;;;16.00;43.00;;;;;;13103301;22;20010;-45
2021/04/27 16:58:16;;;;;;;2.58;1.20;;;16.00;43.40;;;;;;13102436;22;20011;-46
2021/04/27 17:03:28;;;;;;;3.13;1.58;;;15.80;44.80;;;;;;13101622;22;20060;-46
2021/04/27 17:08:40;;;;;;;2.33;1.10;;;15.70;45.20;;;;;;13079461;22;20102;-46
2021/04/27 17:13:47;;;;;;;2.35;1.00;;;15.60;45.80;;;;;;13100131;22;20042;-46
2021/04/27 17:18:51;;;;;;;2.65;1.10;;;15.50;45.00;;;;;;13082304;22;20422;-45
2021/04/27 17:23:58;;;;;;;1.55;0.98;;;15.40;45.50;;;;;;13092182;22;20003;-45
2021/04/27 17:28:58;;;;;;;2.30;0.90;;;15.30;46.20;;;;;;13095725;22;20014;-45
2021/04/27 17:34:01;;;;;;;1.98;1.20;;;15.20;47.70;;;;;;13083308;22;20064;-46
2021/04/27 17:39:03;;;;;;;1.80;0.93;;;15.20;47.40;;;;;;13096892;22;20017;-45
2021/04/27 17:44:06;;;;;;;2.58;1.15;;;15.10;48.00;;;;;;13098314;22;20034;-45
2021/04/27 17:49:08;;;;;;;2.45;1.05;;;15.10;48.20;;;;;;13093038;22;20071;-45
2021/04/27 17:54:09;;;;;;;5.75;1.10;;;14.90;48.70;;;;;;13091088;22;20507;-45
2021/04/27 17:59:10;;;;;;;2.13;1.00;;;14.80;48.70;;;;;;13090271;22;20015;-45
2021/04/27 18:04:11;;;;;;;2.25;0.95;;;14.70;48.80;;;;;;13089860;22;20074;-45
2021/04/27 18:09:14;;;;;;;1.65;0.80;;;14.60;49.20;;;;;;13093000;22;20015;-52
2021/04/27 18:14:15;;;;;;;3.75;1.13;;;14.50;49.50;;;;;;13088326;22;20433;-45
2021/04/27 18:19:16;;;;;;;3.17;1.42;;;14.40;50.60;;;;;;13089530;22;20037;-45
2021/04/27 18:24:24;;;;;;;3.00;1.30;;;14.30;51.50;;;;;;13102332;22;20002;-45
2021/04/27 18:29:27;;;;;;;12.90;1.67;;;14.20;52.00;;;;;;13098288;22;20021;-45
2021/04/27 18:34:29;;;;;;;2.50;1.25;;;14.10;52.30;;;;;;13102019;22;20080;-45
2021/04/27 18:39:30;;;;;;;1.98;0.93;;;13.90;52.70;;;;;;13100167;22;20022;-45
2021/04/27 18:44:32;;;;;;;3.17;1.10;;;13.70;53.20;;;;;;13100680;22;20010;-45
2021/04/27 18:49:36;;;;;;;4.32;1.25;;;13.60;53.70;;;;;;13100620;22;20022;-45
2021/04/27 18:54:38;;;;;;;3.33;1.17;;;13.50;56.00;;;;;;13073723;22;20117;-45
2021/04/27 18:59:39;;;;;;;5.55;1.67;;;13.40;54.80;;;;;;13085337;22;20050;-45
2021/04/27 19:04:42;;;;;;;6.90;1.90;;;13.20;55.80;;;;;;13098304;22;20317;-46
2021/04/27 19:09:43;;;;;;;4.03;1.88;;;13.10;56.10;;;;;;13097327;22;20080;-45
2021/04/27 19:14:44;;;;;;;2.63;1.10;;;12.90;56.10;;;;;;13099191;22;20015;-45
2021/04/27 19:19:45;;;;;;;2.85;0.98;;;12.80;56.80;;;;;;13100291;22;20021;-45
2021/04/27 19:24:46;;;;;;;3.75;1.63;;;12.60;58.60;;;;;;13090165;22;20465;-45
2021/04/27 19:29:49;;;;;;;5.35;1.42;;;12.50;57.80;;;;;;13102267;22;20026;-45
2021/04/27 19:34:50;;;;;;;3.38;1.58;;;12.40;58.90;;;;;;13102297;22;20074;-45
2021/04/27 19:39:51;;;;;;;2.67;1.27;;;12.30;60.50;;;;;;13102048;22;20071;-46
2021/04/27 19:44:52;;;;;;;15.30;1.52;;;12.30;61.10;;;;;;13106477;22;20077;-45
2021/04/27 19:49:53;;;;;;;3.10;1.40;;;12.20;62.50;;;;;;13106143;22;20030;-46
2021/04/27 19:54:54;;;;;;;2.70;1.20;;;12.10;64.20;;;;;;13078557;22;20381;-45
2021/04/27 19:59:54;;;;;;;2.58;1.17;;;12.10;64.40;;;;;;13101125;22;20021;-45
2021/04/27 20:04:55;;;;;;;3.75;2.20;;;12.00;63.30;;;;;;13101225;22;20793;-45
2021/04/27 20:09:56;;;;;;;2.35;1.23;;;11.90;67.10;;;;;;13101037;22;20378;-45
2021/04/27 20:14:57;;;;;;;3.22;1.73;;;11.80;68.20;;;;;;13098028;22;20209;-45
2021/04/27 20:19:57;;;;;;;3.95;1.02;;;11.60;70.60;;;;;;13098854;22;20073;-45
2021/04/27 20:24:58;;;;;;;5.63;1.67;;;11.50;73.70;;;;;;13098646;22;20030;-45
2021/04/27 20:29:59;;;;;;;5.43;1.40;;;11.50;78.20;;;;;;13092349;22;20009;-45
2021/04/27 20:35:00;;;;;;;6.25;2.50;;;11.40;82.90;;;;;;13087619;22;20018;-45
2021/04/27 20:40:00;;;;;;;2.92;1.35;;;11.30;84.20;;;;;;13083942;22;20498;-45
2021/04/27 20:45:02;;;;;;;3.15;1.42;;;11.30;87.50;;;;;;13096937;22;20003;-45
2021/04/27 20:50:05;;;;;;;5.65;1.75;;;11.10;89.90;;;;;;13098768;22;19999;-45
2021/04/27 20:55:07;;;;;;;2.97;1.63;;;11.10;90.00;;;;;;13095312;22;19998;-45
2021/04/27 21:00:15;;;;;;;3.75;1.27;;;11.00;91.40;;;;;;13094259;22;20078;-44
2021/04/27 21:05:18;;;;;;;1.50;0.90;;;10.90;91.90;;;;;;13096131;22;20023;-45
2021/04/27 21:10:20;;;;;;;2.60;1.00;;;10.80;91.90;;;;;;13097258;22;20006;-45
2021/04/27 21:15:24;;;;;;;3.40;1.35;;;10.70;93.00;;;;;;13098541;22;20067;-45
2021/04/27 21:20:25;;;;;;;2.92;1.13;;;10.70;92.40;;;;;;13094564;22;20014;-45
2021/04/27 21:25:25;;;;;;;4.15;1.67;;;10.60;93.20;;;;;;13097161;22;20018;-45
2021/04/27 21:30:26;;;;;;;2.55;1.42;;;10.50;95.50;;;;;;13097454;22;20014;-45
2021/04/27 21:35:27;;;;;;;1.90;0.98;;;10.50;95.00;;;;;;13098271;22;20019;-45
2021/04/27 21:40:28;;;;;;;2.95;1.00;;;10.40;96.00;;;;;;13100483;22;20060;-45
2021/04/27 21:45:29;;;;;;;2.97;0.90;;;10.30;96.70;;;;;;13100492;22;20381;-45
2021/04/27 21:50:29;;;;;;;3.53;1.48;;;10.30;97.40;;;;;;13102390;22;20409;-45
2021/04/27 21:55:30;;;;;;;3.55;1.58;;;10.20;99.30;;;;;;13071899;22;20102;-45
2021/04/27 22:00:33;;;;;;;1.65;0.93;;;10.10;99.20;;;;;;13098901;22;20010;-45
2021/04/27 22:05:35;;;;;;;3.50;1.23;;;10.00;99.20;;;;;;13098801;22;20087;-45
2021/04/27 22:10:38;;;;;;;2.28;1.20;;;10.00;99.90;;;;;;13099998;22;20011;-45
2021/04/27 22:15:41;;;;;;;2.08;0.90;;;9.90;99.90;;;;;;13099429;22;20015;-45
2021/04/27 22:20:43;;;;;;;8.85;1.40;;;9.80;99.90;;;;;;13099285;22;20007;-45
2021/04/27 22:25:46;;;;;;;3.05;1.30;;;9.70;99.90;;;;;;13094880;22;20015;-45
2021/04/27 22:30:50;;;;;;;3.45;1.60;;;9.60;99.90;;;;;;13092556;22;20010;-45
2021/04/27 22:35:52;;;;;;;7.13;1.65;;;9.50;99.70;;;;;;13091371;22;20019;-45
2021/04/27 22:40:53;;;;;;;4.55;1.20;;;9.40;99.90;;;;;;13093410;22;20407;-45
2021/04/27 22:45:54;;;;;;;3.72;1.40;;;9.40;99.90;;;;;;13092971;22;19999;-45
2021/04/27 22:50:55;;;;;;;3.78;1.50;;;9.30;99.90;;;;;;13092201;22;20453;-45
2021/04/27 22:55:57;;;;;;;3.17;1.20;;;9.20;99.90;;;;;;13092002;22;20017;-45
2021/04/27 23:00:57;;;;;;;3.30;1.00;;;9.20;99.90;;;;;;13091923;22;20054;-45
2021/04/27 23:05:58;;;;;;;2.63;1.30;;;9.10;99.90;;;;;;13091533;22;20030;-45
2021/04/27 23:10:59;;;;;;;3.05;1.20;;;9.00;99.90;;;;;;13094211;22;20080;-45
2021/04/27 23:16:00;;;;;;;2.15;1.00;;;8.90;99.90;;;;;;13092993;22;20022;-45
2021/04/27 23:21:00;;;;;;;3.75;2.38;;;8.90;99.90;;;;;;13096223;22;20510;-44
2021/04/27 23:26:01;;;;;;;3.65;1.52;;;8.80;99.90;;;;;;13096470;22;20007;-44
2021/04/27 23:31:02;;;;;;;2.50;1.45;;;8.70;99.90;;;;;;13096128;22;20007;-45
2021/04/27 23:36:03;;;;;;;6.35;1.60;;;8.60;99.90;;;;;;13096044;22;20023;-45
2021/04/27 23:41:04;;;;;;;2.45;0.88;;;8.60;99.90;;;;;;13096460;22;20011;-45
2021/04/27 23:46:04;;;;;;;2.97;1.02;;;8.50;99.90;;;;;;13095339;22;20010;-45
2021/04/27 23:51:05;;;;;;;2.45;0.98;;;8.40;99.90;;;;;;13097254;22;20011;-45
2021/04/27 23:56:06;;;;;;;2.53;1.00;;;8.40;99.90;;;;;;13096921;22;20030;-45
